Time;durP1;ratioP1;P1;durP2;ratioP2;P2;SDS_P1;SDS_P2;PMS_P1;PMS_P2;Temp;Humidity;BMP_temperature;BMP_pressure;BME280_temperature;BME280_humidity;BME280_pressure;Samples;Min_cycle;Max_cycle;Signal;HPM_P1;HPM_P2
2023/01/18 00:01:10;;;;;;;21.07;12.13;;;;;;;;;;5069831;28;20404;-67
2023/01/18 00:03:37;;;;;;;16.50;11.97;;;;;;;;;;5070017;28;20260;-68
2023/01/18 00:06:05;;;;;;;18.73;12.23;;;;;;;;;;5070117;28;20297;-68
2023/01/18 00:08:32;;;;;;;16.83;12.33;;;;;;;;;;5051046;28;20448;-67
2023/01/18 00:11:14;;;;;;;21.17;13.07;;;;;;;;;;5049904;28;20405;-70
2023/01/18 00:13:40;;;;;;;19.43;13.03;;;;;;;;;;5049205;28;20462;-67
2023/01/18 00:16:14;;;;;;;18.90;11.67;;;;;;;;;;5048255;28;20528;-69
2023/01/18 00:18:40;;;;;;;17.47;11.33;;;;;;;;;;5049975;28;20173;-67
2023/01/18 00:21:08;;;;;;;23.67;12.27;;;;;;;;;;5049852;28;20409;-67
2023/01/18 00:23:34;;;;;;;15.93;10.80;;;;;;;;;;5049875;28;20651;-68
2023/01/18 00:26:00;;;;;;;16.67;11.23;;;;;;;;;;5052200;28;20422;-68
2023/01/18 00:28:26;;;;;;;16.10;11.63;;;;;;;;;;5053888;28;20194;-69
2023/01/18 00:30:51;;;;;;;16.83;12.70;;;;;;;;;;5065700;28;20431;-69
2023/01/18 00:33:17;;;;;;;15.47;10.63;;;;;;;;;;5073469;28;20170;-67
2023/01/18 00:35:42;;;;;;;15.23;10.97;;;;;;;;;;5073498;28;20663;-67
2023/01/18 00:38:09;;;;;;;15.00;11.17;;;;;;;;;;5073474;28;20262;-69
2023/01/18 00:40:35;;;;;;;13.80;11.17;;;;;;;;;;5073075;28;20170;-67
2023/01/18 00:45:44;;;;;;;18.63;11.17;;;;;;;;;;5073447;28;20220;-68
2023/01/18 00:48:09;;;;;;;21.47;10.80;;;;;;;;;;5073265;28;20448;-68
2023/01/18 00:50:35;;;;;;;17.07;11.70;;;;;;;;;;5073308;28;20165;-67
2023/01/18 00:53:00;;;;;;;32.63;11.87;;;;;;;;;;5073197;28;20166;-68
2023/01/18 00:55:25;;;;;;;18.90;9.70;;;;;;;;;;5073422;28;20178;-68
2023/01/18 00:57:51;;;;;;;14.17;10.00;;;;;;;;;;5073659;28;20188;-68
2023/01/18 01:00:17;;;;;;;12.50;10.03;;;;;;;;;;5073228;28;20224;-68
2023/01/18 01:02:43;;;;;;;17.10;10.90;;;;;;;;;;5073272;28;20166;-69
2023/01/18 01:08:07;;;;;;;15.17;11.10;;;;;;;;;;5073690;28;20240;-66
2023/01/18 01:10:34;;;;;;;12.53;9.80;;;;;;;;;;5073033;28;20416;-67
2023/01/18 01:26:39;;;;;;;12.70;9.50;;;;;;;;;;5072938;28;20431;-67
2023/01/18 01:29:05;;;;;;;13.23;9.63;;;;;;;;;;5072501;28;20453;-67
2023/01/18 01:31:30;;;;;;;16.77;11.07;;;;;;;;;;5072297;28;20174;-67
2023/01/18 01:33:56;;;;;;;15.87;11.13;;;;;;;;;;5072525;28;20163;-68
2023/01/18 01:36:26;;;;;;;26.50;11.53;;;;;;;;;;5071878;28;20659;-66
2023/01/18 01:38:52;;;;;;;14.40;10.67;;;;;;;;;;5072346;28;20165;-68
2023/01/18 01:41:30;;;;;;;13.70;9.67;;;;;;;;;;5072202;28;20432;-68
2023/01/18 01:43:57;;;;;;;15.00;11.40;;;;;;;;;;5072592;28;20404;-67
2023/01/18 01:46:29;;;;;;;13.20;9.60;;;;;;;;;;5072490;28;20851;-68
2023/01/18 01:49:02;;;;;;;16.37;12.23;;;;;;;;;;5072157;28;20573;-69
2023/01/18 01:51:28;;;;;;;14.30;10.30;;;;;;;;;;5071848;28;20413;-69
2023/01/18 01:53:57;;;;;;;16.50;10.77;;;;;;;;;;5072418;28;20466;-66
2023/01/18 01:56:23;;;;;;;13.03;9.83;;;;;;;;;;5072120;28;20201;-68
2023/01/18 01:58:52;;;;;;;14.43;10.40;;;;;;;;;;5072309;28;20416;-70
2023/01/18 02:01:17;;;;;;;15.87;10.43;;;;;;;;;;5071958;28;20166;-67
2023/01/18 02:03:43;;;;;;;11.93;9.53;;;;;;;;;;5071958;28;20427;-67
2023/01/18 02:06:23;;;;;;;15.33;9.97;;;;;;;;;;5071936;28;20209;-68
2023/01/18 02:08:48;;;;;;;13.50;10.60;;;;;;;;;;5052077;28;20282;-68
2023/01/18 02:11:14;;;;;;;11.13;9.87;;;;;;;;;;5051619;28;20521;-67
2023/01/18 02:13:39;;;;;;;14.87;9.93;;;;;;;;;;5051719;28;20171;-68
2023/01/18 02:16:19;;;;;;;13.33;10.00;;;;;;;;;;5051292;28;20304;-67
2023/01/18 02:18:57;;;;;;;11.97;10.67;;;;;;;;;;5051666;28;20212;-68
2023/01/18 02:21:35;;;;;;;15.60;10.33;;;;;;;;;;5051513;28;20493;-67
2023/01/18 02:24:27;;;;;;;20.50;10.33;;;;;;;;;;5051847;28;20809;-68
2023/01/18 02:27:10;;;;;;;16.40;10.20;;;;;;;;;;5051775;28;20456;-68
2023/01/18 02:30:11;;;;;;;13.83;9.90;;;;;;;;;;5051393;28;20461;-68
2023/01/18 02:32:45;;;;;;;18.20;11.13;;;;;;;;;;5028826;28;20469;-67
2023/01/18 02:35:19;;;;;;;19.13;11.83;;;;;;;;;;5051785;28;20410;-68
2023/01/18 02:38:01;;;;;;;11.53;9.53;;;;;;;;;;5051470;28;20425;-68
2023/01/18 02:40:38;;;;;;;14.27;10.30;;;;;;;;;;5051730;28;20413;-68
2023/01/18 02:48:43;;;;;;;11.73;9.70;;;;;;;;;;5053080;28;20452;-68
2023/01/18 02:51:09;;;;;;;13.77;9.93;;;;;;;;;;5052783;28;20484;-68
2023/01/18 02:53:39;;;;;;;12.07;10.13;;;;;;;;;;5053977;28;20401;-68
2023/01/18 02:56:08;;;;;;;11.17;9.83;;;;;;;;;;5054685;28;20512;-67
2023/01/18 02:58:56;;;;;;;10.57;9.00;;;;;;;;;;5054394;28;20434;-68
2023/01/18 03:01:29;;;;;;;10.47;9.27;;;;;;;;;;5032536;28;20808;-67
2023/01/18 03:03:59;;;;;;;13.50;10.93;;;;;;;;;;5053512;28;20414;-67
2023/01/18 03:06:27;;;;;;;12.73;9.03;;;;;;;;;;5051056;28;20429;-68
2023/01/18 03:08:55;;;;;;;12.57;10.40;;;;;;;;;;5050873;28;20517;-67
2023/01/18 03:11:48;;;;;;;15.77;9.80;;;;;;;;;;5050503;28;20406;-67
2023/01/18 03:14:34;;;;;;;12.60;9.43;;;;;;;;;;5050942;28;20405;-66
2023/01/18 03:17:09;;;;;;;17.67;10.83;;;;;;;;;;5050865;28;20484;-67
2023/01/18 03:25:18;;;;;;;10.47;9.30;;;;;;;;;;5050957;28;20941;-67
2023/01/18 03:36:14;;;;;;;17.30;10.93;;;;;;;;;;5050736;28;20424;-67
2023/01/18 03:38:43;;;;;;;15.53;11.00;;;;;;;;;;5050439;28;20495;-68
2023/01/18 03:41:10;;;;;;;16.73;11.20;;;;;;;;;;5050262;28;20476;-68
2023/01/18 03:43:37;;;;;;;12.47;10.10;;;;;;;;;;5050314;28;20425;-68
2023/01/18 03:46:04;;;;;;;17.20;10.20;;;;;;;;;;5050280;28;20528;-68
2023/01/18 03:48:31;;;;;;;36.97;12.30;;;;;;;;;;5050175;28;20461;-67
2023/01/18 03:51:24;;;;;;;21.50;13.87;;;;;;;;;;5050328;28;20819;-69
2023/01/18 03:54:19;;;;;;;23.13;15.20;;;;;;;;;;5050199;28;20814;-67
2023/01/18 03:56:48;;;;;;;14.10;10.50;;;;;;;;;;5050530;28;20437;-67
2023/01/18 03:59:14;;;;;;;14.53;10.93;;;;;;;;;;5050248;28;20416;-67
2023/01/18 04:01:40;;;;;;;14.13;10.27;;;;;;;;;;5053531;28;20402;-67
2023/01/18 04:04:05;;;;;;;18.37;11.37;;;;;;;;;;5054372;28;20174;-67
2023/01/18 04:06:32;;;;;;;11.50;9.60;;;;;;;;;;5056711;28;20786;-66
2023/01/18 04:08:57;;;;;;;16.60;10.20;;;;;;;;;;5074459;28;20197;-67
2023/01/18 04:11:23;;;;;;;15.87;12.40;;;;;;;;;;5074151;28;20413;-67
2023/01/18 04:13:48;;;;;;;14.53;9.70;;;;;;;;;;5074280;28;20299;-67
2023/01/18 04:16:14;;;;;;;14.10;10.23;;;;;;;;;;5074573;28;20197;-66
2023/01/18 04:18:39;;;;;;;15.70;11.67;;;;;;;;;;5074293;28;20533;-65
2023/01/18 04:21:04;;;;;;;16.10;10.70;;;;;;;;;;5074056;28;20239;-65
2023/01/18 04:23:30;;;;;;;13.27;11.27;;;;;;;;;;5073911;28;20180;-65
2023/01/18 04:25:55;;;;;;;16.33;10.77;;;;;;;;;;5073799;28;20190;-65
2023/01/18 04:28:27;;;;;;;15.60;10.93;;;;;;;;;;5073849;28;20550;-65
2023/01/18 04:30:54;;;;;;;18.60;11.30;;;;;;;;;;5073472;28;20174;-65
2023/01/18 04:33:20;;;;;;;16.83;11.17;;;;;;;;;;5073873;28;20517;-66
2023/01/18 04:35:47;;;;;;;15.93;10.20;;;;;;;;;;5074020;28;20426;-66
2023/01/18 04:38:12;;;;;;;13.13;10.20;;;;;;;;;;5073950;28;20435;-66
2023/01/18 04:40:37;;;;;;;16.30;10.30;;;;;;;;;;5073891;28;20424;-65
2023/01/18 04:43:03;;;;;;;12.53;9.97;;;;;;;;;;5073952;28;20166;-65
2023/01/18 04:45:29;;;;;;;14.27;10.10;;;;;;;;;;5074014;28;20177;-65
2023/01/18 04:47:54;;;;;;;20.50;10.63;;;;;;;;;;5073933;28;20178;-65
2023/01/18 04:50:19;;;;;;;13.87;11.07;;;;;;;;;;5073824;28;20170;-65
2023/01/18 04:52:45;;;;;;;16.20;12.00;;;;;;;;;;5073567;28;20173;-65
2023/01/18 04:55:14;;;;;;;15.60;11.40;;;;;;;;;;5073886;28;20167;-65
2023/01/18 04:57:40;;;;;;;24.30;10.80;;;;;;;;;;5073446;28;20194;-67
2023/01/18 05:00:07;;;;;;;13.83;9.27;;;;;;;;;;5055810;28;20541;-66
2023/01/18 05:02:33;;;;;;;19.20;10.67;;;;;;;;;;5072883;28;20982;-66
2023/01/18 05:04:58;;;;;;;15.17;11.33;;;;;;;;;;5073457;28;20420;-66
2023/01/18 05:07:25;;;;;;;15.23;10.63;;;;;;;;;;5073806;28;20221;-66
2023/01/18 05:09:51;;;;;;;15.23;9.67;;;;;;;;;;5073617;28;20202;-67
2023/01/18 05:12:16;;;;;;;23.13;10.33;;;;;;;;;;5073647;28;20784;-65
2023/01/18 05:14:41;;;;;;;19.33;10.50;;;;;;;;;;5073698;28;20271;-66
2023/01/18 05:17:07;;;;;;;14.90;10.57;;;;;;;;;;5073071;28;20197;-65
2023/01/18 05:19:32;;;;;;;12.20;8.07;;;;;;;;;;5073175;28;20669;-66
2023/01/18 05:21:58;;;;;;;12.30;9.00;;;;;;;;;;5072581;28;20664;-66
2023/01/18 05:24:24;;;;;;;11.30;9.27;;;;;;;;;;5072859;28;20261;-64
2023/01/18 05:26:49;;;;;;;12.30;8.73;;;;;;;;;;5072710;28;20269;-64
2023/01/18 05:29:14;;;;;;;12.07;8.80;;;;;;;;;;5072688;28;20206;-65
2023/01/18 05:31:40;;;;;;;11.50;8.23;;;;;;;;;;5072375;28;20702;-66
2023/01/18 05:34:05;;;;;;;10.47;8.00;;;;;;;;;;5072793;28;20173;-65
2023/01/18 05:36:31;;;;;;;10.10;7.67;;;;;;;;;;5072817;28;20190;-66
2023/01/18 05:38:56;;;;;;;12.13;8.23;;;;;;;;;;5072945;28;20159;-65
2023/01/18 05:41:22;;;;;;;9.63;7.40;;;;;;;;;;5072353;28;20656;-66
2023/01/18 05:43:47;;;;;;;10.30;7.83;;;;;;;;;;5073271;28;20415;-66
2023/01/18 05:46:13;;;;;;;10.70;8.57;;;;;;;;;;5072999;28;20194;-65
2023/01/18 05:48:38;;;;;;;11.50;7.10;;;;;;;;;;5071053;28;20230;-66
2023/01/18 05:51:08;;;;;;;8.23;7.13;;;;;;;;;;5060512;28;20185;-66
2023/01/18 05:53:34;;;;;;;14.63;8.30;;;;;;;;;;5068397;28;20676;-66
2023/01/18 05:56:02;;;;;;;9.60;7.50;;;;;;;;;;5072825;28;20523;-66
2023/01/18 05:58:28;;;;;;;11.67;8.37;;;;;;;;;;5072629;28;20166;-66
2023/01/18 06:00:54;;;;;;;8.93;7.50;;;;;;;;;;5072305;28;20506;-66
2023/01/18 06:03:20;;;;;;;9.33;7.80;;;;;;;;;;5070069;28;20171;-65
2023/01/18 06:05:47;;;;;;;12.37;8.60;;;;;;;;;;5062977;28;20953;-66
2023/01/18 06:08:13;;;;;;;16.87;9.17;;;;;;;;;;5063981;28;20488;-66
2023/01/18 06:10:38;;;;;;;11.50;8.87;;;;;;;;;;5065024;28;20416;-65
2023/01/18 06:13:05;;;;;;;14.27;7.73;;;;;;;;;;5065800;28;20515;-66
2023/01/18 06:15:31;;;;;;;10.33;7.97;;;;;;;;;;5051970;28;20190;-66
2023/01/18 06:17:58;;;;;;;10.20;7.63;;;;;;;;;;5066656;28;20424;-66
2023/01/18 06:20:24;;;;;;;28.93;10.40;;;;;;;;;;5070334;28;20539;-66
2023/01/18 06:22:49;;;;;;;16.23;8.70;;;;;;;;;;5070657;28;20501;-65
2023/01/18 06:25:15;;;;;;;24.53;9.00;;;;;;;;;;5071730;28;20505;-67
2023/01/18 06:27:41;;;;;;;12.87;8.77;;;;;;;;;;5071741;28;20356;-66
2023/01/18 06:30:09;;;;;;;14.53;8.40;;;;;;;;;;5071385;28;20658;-66
2023/01/18 06:32:35;;;;;;;19.30;8.73;;;;;;;;;;5053509;28;20181;-65
2023/01/18 06:35:01;;;;;;;11.03;7.97;;;;;;;;;;5071135;28;20401;-67
2023/01/18 06:37:26;;;;;;;22.70;9.47;;;;;;;;;;5071017;28;20294;-67
2023/01/18 06:39:51;;;;;;;11.70;8.13;;;;;;;;;;5071369;28;20254;-66
2023/01/18 06:42:17;;;;;;;11.10;7.93;;;;;;;;;;5070921;28;20615;-68
2023/01/18 06:44:42;;;;;;;12.20;8.40;;;;;;;;;;5071321;28;20170;-68
2023/01/18 06:47:08;;;;;;;20.87;8.87;;;;;;;;;;5071585;28;20200;-68
2023/01/18 06:49:33;;;;;;;14.07;9.67;;;;;;;;;;5071685;28;20237;-68
2023/01/18 06:51:59;;;;;;;14.80;8.10;;;;;;;;;;5071561;28;20234;-69
2023/01/18 06:54:24;;;;;;;32.23;10.23;;;;;;;;;;5071400;28;20170;-68
2023/01/18 06:56:49;;;;;;;34.83;10.10;;;;;;;;;;5071216;28;20190;-68
2023/01/18 06:59:15;;;;;;;25.53;10.40;;;;;;;;;;5071055;28;20166;-68
2023/01/18 07:01:40;;;;;;;74.90;13.00;;;;;;;;;;5071104;28;20193;-68
2023/01/18 07:04:06;;;;;;;18.23;8.30;;;;;;;;;;5071309;28;20575;-64
2023/01/18 07:06:31;;;;;;;12.33;7.00;;;;;;;;;;5068791;28;20674;-66
2023/01/18 07:08:57;;;;;;;10.50;7.70;;;;;;;;;;5050980;28;20198;-68
2023/01/18 07:11:23;;;;;;;10.10;7.00;;;;;;;;;;5050775;28;20179;-67
2023/01/18 07:13:48;;;;;;;7.63;6.63;;;;;;;;;;5050792;28;20186;-68
2023/01/18 07:16:18;;;;;;;14.33;7.10;;;;;;;;;;5058706;28;20440;-66
2023/01/18 07:18:47;;;;;;;13.77;8.00;;;;;;;;;;5069908;28;20177;-68
2023/01/18 07:21:14;;;;;;;7.73;6.87;;;;;;;;;;5069751;28;20404;-68
2023/01/18 07:23:41;;;;;;;10.90;7.93;;;;;;;;;;5070164;28;20514;-66
2023/01/18 07:26:09;;;;;;;8.80;7.87;;;;;;;;;;5070108;28;21032;-67
2023/01/18 07:28:35;;;;;;;8.87;7.07;;;;;;;;;;5070425;28;20806;-67
2023/01/18 07:31:01;;;;;;;6.57;5.40;;;;;;;;;;5071167;28;20408;-67
2023/01/18 07:33:28;;;;;;;11.00;5.60;;;;;;;;;;5073374;28;20201;-67
2023/01/18 07:35:54;;;;;;;6.97;5.40;;;;;;;;;;5070339;28;20228;-66
2023/01/18 07:38:21;;;;;;;6.20;4.40;;;;;;;;;;5069829;28;20413;-65
2023/01/18 07:40:47;;;;;;;10.20;6.00;;;;;;;;;;5069338;28;20527;-67
2023/01/18 07:43:16;;;;;;;7.00;4.20;;;;;;;;;;5069635;28;20909;-66
2023/01/18 07:45:43;;;;;;;8.63;4.90;;;;;;;;;;5069757;28;20535;-66
2023/01/18 07:48:09;;;;;;;13.63;5.50;;;;;;;;;;5069456;28;20448;-66
2023/01/18 07:50:35;;;;;;;9.13;5.33;;;;;;;;;;5069400;28;20412;-66
2023/01/18 07:53:07;;;;;;;8.37;5.50;;;;;;;;;;5070045;28;20404;-66
2023/01/18 07:55:33;;;;;;;69.27;12.80;;;;;;;;;;5068411;28;20416;-66
2023/01/18 07:57:59;;;;;;;72.40;12.87;;;;;;;;;;5069866;28;20412;-66
2023/01/18 08:00:25;;;;;;;66.70;10.20;;;;;;;;;;5068651;28;20417;-66
2023/01/18 08:02:51;;;;;;;35.90;7.57;;;;;;;;;;5068990;28;20435;-66
2023/01/18 08:05:20;;;;;;;8.73;6.10;;;;;;;;;;5067529;28;20201;-67
2023/01/18 08:07:46;;;;;;;13.57;6.43;;;;;;;;;;5056886;28;20420;-66
2023/01/18 08:10:13;;;;;;;7.03;4.53;;;;;;;;;;5049651;28;20977;-67
2023/01/18 08:12:39;;;;;;;11.37;5.17;;;;;;;;;;5049412;28;20489;-67
2023/01/18 08:15:05;;;;;;;5.60;4.00;;;;;;;;;;5049232;28;20827;-66
2023/01/18 08:17:30;;;;;;;4.90;3.67;;;;;;;;;;5049245;28;20293;-66
2023/01/18 08:19:55;;;;;;;6.50;4.20;;;;;;;;;;5049827;28;20175;-65
2023/01/18 08:22:21;;;;;;;5.27;4.37;;;;;;;;;;5048967;28;20525;-67
2023/01/18 08:24:46;;;;;;;4.40;3.43;;;;;;;;;;5049002;28;20249;-67
2023/01/18 08:27:12;;;;;;;8.53;3.90;;;;;;;;;;5049325;28;20221;-66
2023/01/18 08:29:37;;;;;;;21.40;5.23;;;;;;;;;;5051374;28;20345;-66
2023/01/18 08:32:02;;;;;;;11.23;3.90;;;;;;;;;;5069346;28;20529;-67
2023/01/18 08:34:28;;;;;;;15.73;4.70;;;;;;;;;;5069430;28;20177;-67
2023/01/18 08:36:53;;;;;;;11.00;4.13;;;;;;;;;;5069116;28;20190;-66
2023/01/18 08:39:18;;;;;;;13.17;4.80;;;;;;;;;;5069538;28;20202;-67
2023/01/18 08:41:45;;;;;;;5.67;3.80;;;;;;;;;;5069130;28;20177;-66
2023/01/18 08:44:11;;;;;;;19.33;6.50;;;;;;;;;;5069197;28;20200;-66
2023/01/18 08:46:36;;;;;;;38.00;7.13;;;;;;;;;;5070780;28;20801;-66
2023/01/18 08:49:04;;;;;;;23.73;5.77;;;;;;;;;;5073018;28;20189;-66
2023/01/18 08:51:30;;;;;;;4.77;2.90;;;;;;;;;;5072907;28;20180;-67
2023/01/18 08:53:56;;;;;;;28.40;5.00;;;;;;;;;;5072631;28;20885;-67
2023/01/18 08:56:21;;;;;;;4.30;2.27;;;;;;;;;;5072593;28;20194;-68
2023/01/18 08:58:47;;;;;;;3.63;2.70;;;;;;;;;;5072527;28;20166;-66
2023/01/18 09:01:12;;;;;;;8.03;4.00;;;;;;;;;;5072511;28;20167;-67
2023/01/18 09:03:37;;;;;;;3.40;2.47;;;;;;;;;;5072524;28;20177;-66
2023/01/18 09:06:07;;;;;;;4.33;2.70;;;;;;;;;;5072941;28;20190;-67
2023/01/18 09:08:32;;;;;;;3.50;2.50;;;;;;;;;;5072655;28;20194;-67
2023/01/18 09:11:05;;;;;;;2.67;2.43;;;;;;;;;;5072550;28;20417;-66
2023/01/18 09:13:31;;;;;;;3.90;2.80;;;;;;;;;;5072735;28;20170;-68
2023/01/18 09:16:02;;;;;;;2.60;2.40;;;;;;;;;;5072518;28;20447;-67
2023/01/18 09:18:29;;;;;;;2.80;2.30;;;;;;;;;;5072813;28;20415;-68
2023/01/18 09:20:56;;;;;;;4.30;2.47;;;;;;;;;;5072284;28;20408;-67
2023/01/18 09:23:22;;;;;;;11.60;2.67;;;;;;;;;;5072797;28;20415;-67
2023/01/18 09:25:48;;;;;;;18.30;3.07;;;;;;;;;;5072355;28;20442;-68
2023/01/18 09:28:15;;;;;;;16.13;4.33;;;;;;;;;;5072337;28;20452;-69
2023/01/18 09:30:41;;;;;;;83.53;9.87;;;;;;;;;;5072031;28;20436;-69
2023/01/18 09:33:06;;;;;;;14.10;3.70;;;;;;;;;;5072177;28;20466;-68
2023/01/18 09:35:32;;;;;;;3.73;2.30;;;;;;;;;;5071845;28;20599;-68
2023/01/18 09:37:57;;;;;;;4.60;2.63;;;;;;;;;;5071696;28;20183;-69
2023/01/18 09:40:44;;;;;;;49.87;6.23;;;;;;;;;;5072044;28;20518;-66
2023/01/18 09:43:32;;;;;;;26.60;6.00;;;;;;;;;;5072007;28;20173;-67
2023/01/18 09:45:58;;;;;;;8.10;3.90;;;;;;;;;;5071676;28;20939;-68
2023/01/18 09:48:38;;;;;;;6.80;4.30;;;;;;;;;;5071873;28;20452;-68
2023/01/18 09:51:19;;;;;;;3.70;2.93;;;;;;;;;;5071426;28;21161;-67
2023/01/18 09:54:06;;;;;;;8.23;4.10;;;;;;;;;;5071876;28;20408;-69
2023/01/18 09:56:52;;;;;;;3.50;2.77;;;;;;;;;;5071092;28;20554;-67
2023/01/18 09:59:42;;;;;;;4.30;2.53;;;;;;;;;;5069666;28;20413;-67
2023/01/18 10:02:23;;;;;;;3.77;3.07;;;;;;;;;;5072563;28;20484;-68
2023/01/18 10:04:55;;;;;;;5.30;3.23;;;;;;;;;;5071456;28;20396;-67
2023/01/18 10:07:24;;;;;;;6.97;4.00;;;;;;;;;;5071799;28;20455;-68
2023/01/18 10:09:55;;;;;;;5.80;3.70;;;;;;;;;;5072396;28;20449;-68
2023/01/18 10:12:30;;;;;;;7.23;4.30;;;;;;;;;;5072538;28;20416;-67
2023/01/18 10:15:22;;;;;;;7.63;4.70;;;;;;;;;;5072579;28;20517;-66
2023/01/18 10:17:52;;;;;;;8.80;4.10;;;;;;;;;;5070870;28;20535;-67
2023/01/18 10:20:39;;;;;;;6.40;3.90;;;;;;;;;;5071015;28;20404;-70
2023/01/18 10:23:08;;;;;;;7.13;3.60;;;;;;;;;;5071071;28;20757;-68
2023/01/18 10:25:42;;;;;;;3.50;3.20;;;;;;;;;;5071155;28;20416;-67
2023/01/18 10:28:24;;;;;;;10.10;4.57;;;;;;;;;;5070963;28;20419;-66
2023/01/18 10:31:00;;;;;;;6.40;4.53;;;;;;;;;;5070431;28;20404;-68
2023/01/18 10:33:29;;;;;;;7.90;4.57;;;;;;;;;;5070587;28;20774;-67
2023/01/18 10:35:59;;;;;;;5.20;3.43;;;;;;;;;;5070203;28;20461;-67
2023/01/18 10:38:28;;;;;;;4.70;3.80;;;;;;;;;;5070749;28;20407;-67
2023/01/18 10:40:57;;;;;;;5.60;3.87;;;;;;;;;;5070383;28;20409;-67
2023/01/18 10:43:25;;;;;;;4.77;3.37;;;;;;;;;;5070587;28;20758;-68
2023/01/18 10:45:52;;;;;;;5.47;3.70;;;;;;;;;;5070549;28;20494;-68
2023/01/18 10:48:23;;;;;;;3.53;3.23;;;;;;;;;;5070610;28;20976;-67
2023/01/18 10:51:15;;;;;;;4.03;3.57;;;;;;;;;;5071085;28;20408;-68
2023/01/18 10:53:40;;;;;;;4.67;3.10;;;;;;;;;;5069957;28;20935;-68
2023/01/18 10:56:09;;;;;;;8.00;4.03;;;;;;;;;;5070373;28;20429;-67
2023/01/18 10:58:49;;;;;;;6.90;4.10;;;;;;;;;;5070575;28;20637;-68
2023/01/18 11:01:21;;;;;;;10.67;3.07;;;;;;;;;;5069849;28;20439;-67
2023/01/18 11:03:51;;;;;;;7.53;3.20;;;;;;;;;;5070570;28;20498;-68
2023/01/18 11:06:19;;;;;;;12.27;4.90;;;;;;;;;;5070427;28;20420;-67
2023/01/18 11:08:45;;;;;;;4.50;4.10;;;;;;;;;;5070262;28;21316;-68
2023/01/18 11:12:32;;;;;;;4.97;4.00;;;;;;;;;;5070329;28;21166;-67
2023/01/18 11:14:28;;;;;;;16.07;8.07;;;;;;;;;;5070122;28;20462;-68
2023/01/18 11:17:10;;;;;;;6.40;4.50;;;;;;;;;;5070109;28;20463;-67
2023/01/18 11:19:36;;;;;;;5.47;4.23;;;;;;;;;;5070360;28;20810;-67
2023/01/18 11:22:09;;;;;;;11.30;5.47;;;;;;;;;;5069930;28;20472;-66
2023/01/18 11:24:36;;;;;;;7.30;5.60;;;;;;;;;;5069875;28;20439;-69
2023/01/18 11:27:12;;;;;;;9.80;6.83;;;;;;;;;;5069549;28;20428;-66
2023/01/18 11:29:42;;;;;;;8.10;5.53;;;;;;;;;;5068518;28;21007;-68
2023/01/18 11:32:25;;;;;;;7.93;5.07;;;;;;;;;;5069053;28;20980;-67
2023/01/18 11:34:58;;;;;;;9.10;6.60;;;;;;;;;;5070123;28;20750;-67
2023/01/18 11:37:33;;;;;;;8.57;5.90;;;;;;;;;;5070515;28;20438;-66
2023/01/18 11:40:21;;;;;;;13.27;6.77;;;;;;;;;;5070290;28;20431;-68
2023/01/18 11:42:49;;;;;;;7.37;5.67;;;;;;;;;;5069769;28;20516;-67
2023/01/18 11:45:39;;;;;;;10.83;7.07;;;;;;;;;;5070080;28;20440;-67
2023/01/18 11:48:19;;;;;;;6.37;5.43;;;;;;;;;;5069880;28;20422;-68
2023/01/18 11:50:53;;;;;;;10.17;6.50;;;;;;;;;;5069662;28;20416;-68
2023/01/18 11:53:36;;;;;;;11.13;5.80;;;;;;;;;;5069894;28;20401;-67
2023/01/18 11:56:20;;;;;;;6.10;5.13;;;;;;;;;;5069779;28;20551;-67
2023/01/18 11:58:48;;;;;;;13.67;6.47;;;;;;;;;;5069629;28;20443;-66
2023/01/18 12:01:44;;;;;;;22.97;6.00;;;;;;;;;;5069702;28;20447;-67
2023/01/18 12:04:48;;;;;;;7.43;5.87;;;;;;;;;;5069903;28;20424;-67
2023/01/18 12:07:38;;;;;;;4.70;4.03;;;;;;;;;;5066182;28;20440;-68
2023/01/18 12:10:09;;;;;;;9.43;6.63;;;;;;;;;;5070126;28;20451;-67
2023/01/18 12:12:43;;;;;;;7.27;5.30;;;;;;;;;;5069619;28;20408;-68
2023/01/18 12:15:44;;;;;;;12.17;5.77;;;;;;;;;;5069879;28;20400;-68
2023/01/18 12:18:31;;;;;;;9.97;4.40;;;;;;;;;;4983344;28;21736;-68
2023/01/18 12:21:11;;;;;;;22.10;4.63;;;;;;;;;;5044045;28;20474;-67
2023/01/18 12:24:14;;;;;;;14.07;5.10;;;;;;;;;;5053168;28;20859;-67
2023/01/18 12:26:45;;;;;;;4.40;4.00;;;;;;;;;;5053335;28;21399;-68
2023/01/18 12:29:32;;;;;;;3.73;3.43;;;;;;;;;;5053241;28;20460;-67
2023/01/18 12:32:42;;;;;;;5.77;5.00;;;;;;;;;;5052619;28;20508;-68
2023/01/18 12:35:28;;;;;;;5.90;4.77;;;;;;;;;;5055639;28;20420;-69
2023/01/18 12:37:59;;;;;;;5.40;4.67;;;;;;;;;;5071989;28;20420;-69
2023/01/18 12:40:30;;;;;;;5.30;4.80;;;;;;;;;;5071034;28;20901;-67
2023/01/18 12:42:59;;;;;;;15.67;12.30;;;;;;;;;;5062409;28;20499;-67
2023/01/18 12:45:39;;;;;;;5.47;4.97;;;;;;;;;;5052228;28;20409;-67
2023/01/18 12:48:39;;;;;;;11.33;4.67;;;;;;;;;;5052460;28;20500;-68
2023/01/18 12:51:12;;;;;;;7.10;4.03;;;;;;;;;;5052170;28;20760;-68
2023/01/18 12:53:57;;;;;;;5.37;4.07;;;;;;;;;;5052577;28;20780;-68
2023/01/18 12:56:32;;;;;;;19.10;4.30;;;;;;;;;;5052762;28;20510;-68
2023/01/18 12:59:07;;;;;;;4.40;4.00;;;;;;;;;;5052632;28;20906;-67
2023/01/18 13:01:45;;;;;;;5.90;4.30;;;;;;;;;;5051800;28;20501;-68
2023/01/18 13:04:19;;;;;;;9.27;4.10;;;;;;;;;;5053074;28;20492;-67
2023/01/18 13:06:49;;;;;;;18.97;5.70;;;;;;;;;;5052601;28;20425;-69
2023/01/18 13:09:19;;;;;;;4.17;3.83;;;;;;;;;;5052406;28;20457;-68
2023/01/18 13:11:44;;;;;;;14.40;4.50;;;;;;;;;;5052056;28;20416;-67
2023/01/18 13:14:16;;;;;;;5.47;4.93;;;;;;;;;;5052368;28;20398;-67
2023/01/18 13:16:59;;;;;;;10.20;4.33;;;;;;;;;;5052037;28;20210;-69
2023/01/18 13:19:39;;;;;;;10.80;5.70;;;;;;;;;;5051816;28;20467;-67
2023/01/18 13:22:07;;;;;;;8.10;4.67;;;;;;;;;;5051827;28;20428;-67
2023/01/18 13:25:10;;;;;;;6.57;4.87;;;;;;;;;;5052021;28;20777;-68
2023/01/18 13:27:39;;;;;;;4.10;3.80;;;;;;;;;;5051744;28;20456;-68
2023/01/18 13:30:14;;;;;;;4.27;3.20;;;;;;;;;;5057362;28;20463;-68
2023/01/18 13:32:42;;;;;;;6.63;4.07;;;;;;;;;;5070396;28;20400;-68
2023/01/18 13:35:18;;;;;;;12.50;4.37;;;;;;;;;;5071736;28;20485;-68
2023/01/18 13:37:56;;;;;;;11.80;4.63;;;;;;;;;;5071535;28;20545;-68
2023/01/18 13:40:41;;;;;;;5.53;4.50;;;;;;;;;;5071570;28;20408;-67
2023/01/18 13:43:37;;;;;;;6.57;4.03;;;;;;;;;;5071840;28;20488;-68
2023/01/18 13:46:20;;;;;;;10.00;4.50;;;;;;;;;;5072194;28;20933;-68
2023/01/18 13:48:49;;;;;;;24.50;7.10;;;;;;;;;;5071762;28;20459;-68
2023/01/18 13:51:39;;;;;;;19.60;6.00;;;;;;;;;;5071607;28;20404;-68
2023/01/18 13:54:09;;;;;;;17.03;6.10;;;;;;;;;;5071713;28;20408;-68
2023/01/18 13:56:38;;;;;;;5.50;4.97;;;;;;;;;;5065962;28;20448;-68
2023/01/18 13:59:19;;;;;;;7.70;5.50;;;;;;;;;;5068764;28;20412;-67
2023/01/18 14:01:47;;;;;;;8.20;4.40;;;;;;;;;;5071066;28;20465;-68
2023/01/18 14:04:21;;;;;;;8.20;5.47;;;;;;;;;;5071020;28;20767;-67
2023/01/18 14:06:47;;;;;;;7.07;4.77;;;;;;;;;;5066493;28;20429;-68
2023/01/18 14:09:17;;;;;;;7.87;4.70;;;;;;;;;;5051132;28;20484;-66
2023/01/18 14:11:52;;;;;;;6.70;4.73;;;;;;;;;;5050936;28;20398;-69
2023/01/18 14:14:18;;;;;;;4.97;4.20;;;;;;;;;;5058558;28;20509;-67
2023/01/18 14:17:12;;;;;;;9.23;5.13;;;;;;;;;;5068888;28;20456;-66
2023/01/18 14:19:47;;;;;;;9.27;7.30;;;;;;;;;;5063751;28;21019;-68
2023/01/18 14:22:20;;;;;;;4.63;4.23;;;;;;;;;;5070476;28;20434;-67
2023/01/18 14:24:46;;;;;;;7.77;5.70;;;;;;;;;;5069090;28;20514;-68
2023/01/18 14:27:18;;;;;;;11.43;6.73;;;;;;;;;;5070023;28;20570;-68
2023/01/18 14:29:50;;;;;;;9.50;6.53;;;;;;;;;;5071376;28;20239;-68
2023/01/18 14:32:22;;;;;;;13.23;6.43;;;;;;;;;;5070704;28;20960;-68
2023/01/18 14:34:59;;;;;;;7.60;5.97;;;;;;;;;;5070726;28;20411;-66
2023/01/18 14:37:29;;;;;;;9.60;5.90;;;;;;;;;;5070583;28;20786;-67
2023/01/18 14:40:09;;;;;;;12.00;5.87;;;;;;;;;;5071135;28;20826;-67
2023/01/18 14:42:42;;;;;;;5.30;4.80;;;;;;;;;;5070375;28;20412;-68
2023/01/18 14:45:26;;;;;;;13.30;5.87;;;;;;;;;;5056302;28;20472;-68
2023/01/18 14:47:53;;;;;;;5.63;5.03;;;;;;;;;;5070385;28;20451;-68
2023/01/18 14:50:21;;;;;;;8.83;5.37;;;;;;;;;;5070270;28;20962;-68
2023/01/18 14:52:49;;;;;;;5.97;4.40;;;;;;;;;;5068555;28;20412;-69
2023/01/18 14:55:29;;;;;;;19.83;5.67;;;;;;;;;;5069416;28;20491;-68
2023/01/18 14:58:15;;;;;;;7.83;5.10;;;;;;;;;;5070860;28;20404;-67
2023/01/18 15:00:47;;;;;;;8.70;5.00;;;;;;;;;;5069610;28;20404;-67
2023/01/18 15:03:19;;;;;;;7.67;5.00;;;;;;;;;;5070772;28;20401;-67
2023/01/18 15:05:45;;;;;;;15.57;6.17;;;;;;;;;;5071021;28;20489;-69
2023/01/18 15:08:11;;;;;;;12.03;6.00;;;;;;;;;;5054256;28;20850;-67
2023/01/18 15:10:38;;;;;;;20.73;7.10;;;;;;;;;;5066706;28;20959;-67
2023/01/18 15:13:04;;;;;;;15.20;6.20;;;;;;;;;;5052322;28;20417;-68
2023/01/18 15:15:41;;;;;;;11.30;7.43;;;;;;;;;;5070581;28;20851;-67
2023/01/18 15:18:14;;;;;;;9.40;6.40;;;;;;;;;;5070747;28;20408;-67
2023/01/18 15:20:50;;;;;;;7.90;5.30;;;;;;;;;;5070214;28;20920;-66
2023/01/18 15:23:16;;;;;;;8.30;5.53;;;;;;;;;;5066246;28;20433;-68
2023/01/18 15:25:42;;;;;;;84.33;15.13;;;;;;;;;;5070625;28;20488;-68
2023/01/18 15:28:09;;;;;;;17.97;5.90;;;;;;;;;;5070470;28;20642;-67
2023/01/18 15:30:35;;;;;;;8.27;5.50;;;;;;;;;;5070119;28;20170;-67
2023/01/18 15:33:01;;;;;;;12.53;6.77;;;;;;;;;;5070528;28;20439;-68